»·PEaware :: N137JF KBOI-KDAL

N137JF :: KBOI-KDAL

FLIGHT INFORMATION

Flight Status: Arrived
Operator: Privately registered:
United States
More flights under this callsign
Pilot: Bill H. (23183)
Aircraft: Unknown
(EVIC)
More flights by this aircraft type
Origin: KBOI Boise Air Terminal/Gowen
United States
Destination: KDAL Dallas Love
United States
More flights between these airports :: More routes between these airports
Route: KBOI KPVU KDRO KDAL
File this flight plan on PilotEdge
Remarks: +CW / Charter Flight - Epic Victory
Altitude:
(Current/Filed)
17,500ft
Speed:
(Current/Filed)
340kts
Departed: 15-Dec-19 07:06 AM
Arrived: 15-Dec-19 10:02 AM
Distance/Time
Traveled:
1113nm/2:56
Distance/Time
To Go:
Arrived

Flight Plot

Page will automatically refresh every two minutes.

Flight plan parsing failed; only flown route is shown


Map Options




Map Legend


Flown Route
Filed Route
Departure Airport
Arrival Airport
Navaid (VOR, NDB)
Fix

Horizontal Profiles

Position Reports

Time Latitude Longitude Heading Altitude Ground
Speed
15-Dec-19 07:01 43.562101 -116.205354 190 2867ft 0kts
15-Dec-19 07:02 43.561718 -116.206022 240 2866ft 12kts
15-Dec-19 07:03 43.560135 -116.203778 116 2867ft 9kts
15-Dec-19 07:04 43.559276 -116.202429 197 2868ft 7kts
15-Dec-19 07:05 43.564242 -116.219406 295 2850ft 116kts
15-Dec-19 07:06 43.584094 -116.264259 308 4141ft 151kts
15-Dec-19 07:07 43.605983 -116.240508 128 5787ft 168kts
15-Dec-19 07:08 43.561771 -116.210012 143 7378ft 193kts
15-Dec-19 07:09 43.519443 -116.156532 134 8926ft 218kts
15-Dec-19 07:10 43.475647 -116.093805 133 10454ft 236kts
15-Dec-19 07:11 43.429360 -116.026812 133 11971ft 246kts
15-Dec-19 07:12 43.381746 -115.957994 133 13475ft 250kts
15-Dec-19 07:13 43.333547 -115.888498 133 14977ft 250kts
15-Dec-19 07:14 43.285916 -115.819987 133 16464ft 246kts
15-Dec-19 07:15 43.238445 -115.751871 133 17511ft 259kts
15-Dec-19 07:16 43.184009 -115.673957 133 17506ft 302kts
15-Dec-19 07:17 43.121771 -115.585144 133 17502ft 335kts
15-Dec-19 07:18 43.055970 -115.491548 133 17501ft 344kts
15-Dec-19 07:19 42.995454 -115.405742 133 17500ft 348kts
15-Dec-19 07:20 42.928419 -115.311001 134 17500ft 350kts
15-Dec-19 07:21 42.860858 -115.215830 134 17500ft 351kts
15-Dec-19 07:22 42.792896 -115.120417 134 17500ft 351kts
15-Dec-19 07:23 42.724577 -115.024827 134 17500ft 352kts
15-Dec-19 07:24 42.656199 -114.929474 134 17500ft 352kts
15-Dec-19 07:25 42.587689 -114.834256 134 17500ft 352kts
15-Dec-19 07:26 42.519162 -114.739334 134 17500ft 352kts
15-Dec-19 07:27 42.450407 -114.644413 134 17500ft 352kts
15-Dec-19 07:28 42.381657 -114.549814 134 17500ft 352kts
15-Dec-19 07:29 42.312852 -114.455454 134 17500ft 352kts
15-Dec-19 07:30 42.243949 -114.361270 134 17500ft 352kts
15-Dec-19 07:31 42.179979 -114.274116 135 17499ft 352kts
15-Dec-19 07:32 42.110988 -114.180414 135 17500ft 352kts
15-Dec-19 07:33 42.041660 -114.086561 135 17499ft 352kts
15-Dec-19 07:34 41.972421 -113.993134 135 17500ft 352kts
15-Dec-19 07:35 41.903185 -113.900015 135 17500ft 352kts
15-Dec-19 07:36 41.833552 -113.806664 135 17500ft 352kts
15-Dec-19 07:37 41.764346 -113.714190 135 17500ft 352kts
15-Dec-19 07:39 41.694845 -113.621621 135 17500ft 352kts
15-Dec-19 07:40 41.625345 -113.529351 135 17500ft 352kts
15-Dec-19 07:41 41.555914 -113.437469 135 17500ft 352kts
15-Dec-19 07:42 41.486062 -113.345327 135 17500ft 352kts
15-Dec-19 07:43 41.417094 -113.254635 135 17500ft 352kts
15-Dec-19 07:44 41.347212 -113.163041 135 17500ft 352kts
15-Dec-19 07:45 41.277020 -113.071330 135 17500ft 352kts
15-Dec-19 07:46 41.206810 -112.979886 135 17500ft 352kts
15-Dec-19 07:47 41.136707 -112.888871 135 17499ft 352kts
15-Dec-19 07:48 41.066415 -112.797897 135 17499ft 352kts
15-Dec-19 07:49 40.996390 -112.707551 135 17499ft 352kts
15-Dec-19 07:50 40.925946 -112.616954 135 17499ft 352kts
15-Dec-19 07:51 40.856389 -112.527771 135 17500ft 352kts
15-Dec-19 07:52 40.785887 -112.437656 135 17500ft 352kts
15-Dec-19 07:53 40.715318 -112.347740 136 17500ft 352kts
15-Dec-19 07:54 40.644763 -112.258121 136 17500ft 352kts
15-Dec-19 07:55 40.573799 -112.168262 136 17500ft 352kts
15-Dec-19 07:56 40.502777 -112.078607 136 17500ft 352kts
15-Dec-19 07:57 40.431715 -111.989179 136 17500ft 352kts
15-Dec-19 07:58 40.360808 -111.900220 136 17500ft 352kts
15-Dec-19 07:59 40.289798 -111.811405 136 17500ft 352kts
15-Dec-19 08:00 40.218624 -111.722604 135 17499ft 352kts
15-Dec-19 08:00 40.162199 -111.644693 133 17500ft 352kts
15-Dec-19 08:02 40.083339 -111.536168 133 17500ft 352kts
15-Dec-19 08:02 40.026899 -111.458741 133 17500ft 352kts
15-Dec-19 08:03 39.959074 -111.365958 133 17500ft 352kts
15-Dec-19 08:05 39.879767 -111.257833 133 17500ft 352kts
15-Dec-19 08:05 39.823288 -111.181063 133 17500ft 352kts
15-Dec-19 08:06 39.755234 -111.088818 133 17500ft 352kts
15-Dec-19 08:07 39.687447 -110.997216 133 17500ft 352kts
15-Dec-19 08:08 39.619331 -110.905446 133 17500ft 352kts
15-Dec-19 08:09 39.551100 -110.813800 133 17500ft 352kts
15-Dec-19 08:10 39.482845 -110.722398 133 17500ft 352kts
15-Dec-19 08:11 39.414651 -110.631352 133 17500ft 352kts
15-Dec-19 08:12 39.346138 -110.540154 133 17500ft 352kts
15-Dec-19 08:13 39.277499 -110.449060 133 17500ft 352kts
15-Dec-19 08:14 39.208775 -110.358127 133 17500ft 352kts
15-Dec-19 08:15 39.140084 -110.267511 134 17500ft 352kts
15-Dec-19 08:16 39.071616 -110.177453 134 17500ft 352kts
15-Dec-19 08:17 39.002776 -110.087175 134 17500ft 352kts
15-Dec-19 08:18 38.933889 -109.997101 134 17500ft 352kts
15-Dec-19 08:19 38.864844 -109.907087 134 17500ft 352kts
15-Dec-19 08:20 38.795679 -109.817180 134 17500ft 352kts
15-Dec-19 08:21 38.726788 -109.727892 134 17500ft 352kts
15-Dec-19 08:22 38.657772 -109.638702 134 17500ft 352kts
15-Dec-19 08:23 38.588521 -109.549468 134 17500ft 353kts
15-Dec-19 08:24 38.519400 -109.460660 134 17500ft 353kts
15-Dec-19 08:25 38.450091 -109.371868 134 17500ft 353kts
15-Dec-19 08:26 38.380624 -109.283129 135 17500ft 353kts
15-Dec-19 08:27 38.311193 -109.194693 135 17500ft 353kts
15-Dec-19 08:28 38.241599 -109.106302 135 17500ft 353kts
15-Dec-19 08:29 38.172266 -109.018496 135 17500ft 353kts
15-Dec-19 08:30 38.102519 -108.930415 135 17500ft 353kts
15-Dec-19 08:31 38.032704 -108.842500 135 17500ft 353kts
15-Dec-19 08:32 37.963053 -108.755039 135 17500ft 353kts
15-Dec-19 08:33 37.892980 -108.667295 135 17500ft 353kts
15-Dec-19 08:34 37.822996 -108.579916 135 17500ft 353kts
15-Dec-19 08:35 37.752995 -108.492758 135 17500ft 353kts
15-Dec-19 08:36 37.682939 -108.405777 135 17500ft 353kts
15-Dec-19 08:37 37.613718 -108.320071 135 17500ft 353kts
15-Dec-19 08:38 37.543491 -108.233360 135 17500ft 353kts
15-Dec-19 08:39 37.473192 -108.146802 135 17500ft 353kts
15-Dec-19 08:40 37.403020 -108.060640 135 17500ft 353kts
15-Dec-19 08:41 37.332521 -107.974315 135 17500ft 353kts
15-Dec-19 08:42 37.261799 -107.887957 135 17500ft 353kts
15-Dec-19 08:43 37.191374 -107.802198 135 17500ft 353kts
15-Dec-19 08:44 37.134872 -107.704130 111 17503ft 352kts
15-Dec-19 08:45 37.097317 -107.590251 112 17500ft 353kts
15-Dec-19 08:46 37.059512 -107.476729 112 17500ft 353kts
15-Dec-19 08:47 37.003050 -107.383376 168 17488ft 352kts
15-Dec-19 08:48 36.939240 -107.454493 261 17511ft 351kts
15-Dec-19 08:49 36.926191 -107.576090 262 17500ft 352kts
15-Dec-19 08:50 36.857934 -107.639534 163 17487ft 352kts
15-Dec-19 08:51 36.824437 -107.538363 81 17506ft 352kts
15-Dec-19 08:52 36.838383 -107.417231 81 17500ft 352kts
15-Dec-19 08:53 36.834098 -107.296838 109 17501ft 352kts
15-Dec-19 08:54 36.798356 -107.182318 112 17500ft 353kts
15-Dec-19 08:55 36.134703 -105.196010 113 17515ft 352kts
15-Dec-19 08:56 35.435057 -103.233658 114 17502ft 353kts
15-Dec-19 08:57 35.394598 -103.123858 114 17500ft 353kts
15-Dec-19 08:58 35.354023 -103.014121 114 17500ft 353kts
15-Dec-19 08:59 35.313459 -102.904787 114 17500ft 353kts
15-Dec-19 09:00 35.272832 -102.795661 114 17500ft 353kts
15-Dec-19 09:01 35.231910 -102.686121 114 17500ft 353kts
15-Dec-19 09:02 35.191056 -102.577132 114 17500ft 353kts
15-Dec-19 09:03 35.149991 -102.467954 114 17500ft 353kts
15-Dec-19 09:04 35.108946 -102.359194 114 17500ft 353kts
15-Dec-19 09:05 35.067661 -102.250169 115 17500ft 353kts
15-Dec-19 09:06 35.026336 -102.141407 115 17500ft 353kts
15-Dec-19 09:07 34.984932 -102.032801 115 17500ft 353kts
15-Dec-19 09:08 34.943365 -101.924132 115 17500ft 353kts
15-Dec-19 09:09 34.901815 -101.815868 115 17500ft 353kts
15-Dec-19 09:10 34.859930 -101.707093 115 17500ft 353kts
15-Dec-19 09:11 34.818213 -101.599114 115 17500ft 353kts
15-Dec-19 09:12 34.776306 -101.490999 115 17500ft 353kts
15-Dec-19 09:13 34.734359 -101.383139 115 17500ft 353kts
15-Dec-19 09:14 34.692217 -101.275131 115 17500ft 353kts
15-Dec-19 09:15 34.650019 -101.167334 115 17500ft 353kts
15-Dec-19 09:16 34.607927 -101.060157 115 17500ft 353kts
15-Dec-19 09:17 34.565457 -100.952365 115 17500ft 353kts
15-Dec-19 09:18 34.523041 -100.845061 115 17500ft 353kts
15-Dec-19 09:19 34.480433 -100.737620 115 17500ft 353kts
15-Dec-19 09:20 34.437675 -100.630147 115 17500ft 353kts
15-Dec-19 09:21 34.394935 -100.523065 115 17500ft 353kts
15-Dec-19 09:22 34.352159 -100.416235 115 17500ft 353kts
15-Dec-19 09:23 34.309094 -100.309027 116 17500ft 353kts
15-Dec-19 09:24 34.265966 -100.202001 116 17500ft 353kts
15-Dec-19 09:25 34.222940 -100.095568 116 17500ft 353kts
15-Dec-19 09:26 34.179659 -99.988843 116 17500ft 353kts
15-Dec-19 09:27 34.136459 -99.882651 116 17500ft 353kts
15-Dec-19 09:28 34.093126 -99.776468 116 17500ft 353kts
15-Dec-19 09:29 34.049543 -99.670004 116 17500ft 353kts
15-Dec-19 09:30 34.005922 -99.563779 116 17500ft 353kts
15-Dec-19 09:31 33.962329 -99.457945 116 17500ft 353kts
15-Dec-19 09:32 33.918773 -99.352533 116 17500ft 353kts
15-Dec-19 09:33 33.874585 -99.245933 116 17500ft 353kts
15-Dec-19 09:34 33.830757 -99.140521 116 17500ft 353kts
15-Dec-19 09:35 33.786806 -99.035137 116 17500ft 353kts
15-Dec-19 09:36 33.742772 -98.929882 116 17500ft 353kts
15-Dec-19 09:37 33.698510 -98.824407 116 17500ft 353kts
15-Dec-19 09:38 33.654226 -98.719193 116 17500ft 353kts
15-Dec-19 09:39 33.609817 -98.614004 116 17500ft 353kts
15-Dec-19 09:40 33.565397 -98.509107 116 17500ft 353kts
15-Dec-19 09:41 33.520935 -98.404427 116 17500ft 353kts
15-Dec-19 09:42 33.476747 -98.300703 117 17500ft 353kts
15-Dec-19 09:43 33.431948 -98.195858 117 17500ft 353kts
15-Dec-19 09:44 33.387054 -98.091107 117 17500ft 353kts
15-Dec-19 09:45 33.342259 -97.986896 117 17500ft 353kts
15-Dec-19 09:46 33.297258 -97.882517 117 17500ft 353kts
15-Dec-19 09:47 33.252284 -97.778511 117 17500ft 353kts
15-Dec-19 09:48 33.206986 -97.674062 117 17500ft 353kts
15-Dec-19 09:49 33.161742 -97.570047 117 17463ft 348kts
15-Dec-19 09:50 33.120057 -97.474489 117 16548ft 309kts
15-Dec-19 09:51 33.083776 -97.391524 117 15515ft 262kts
15-Dec-19 09:52 33.056536 -97.313943 112 14129ft 250kts
15-Dec-19 09:53 33.029901 -97.236947 112 12133ft 252kts
15-Dec-19 09:54 33.003558 -97.160646 112 9876ft 251kts
15-Dec-19 09:55 32.977076 -97.083787 112 7372ft 250kts
15-Dec-19 09:56 32.952491 -97.012276 112 6190ft 209kts
15-Dec-19 09:57 32.930146 -96.952322 129 4418ft 196kts
15-Dec-19 09:58 32.894680 -96.912088 140 2196ft 139kts
15-Dec-19 09:59 32.869956 -96.884512 135 1192ft 100kts
15-Dec-19 10:00 32.851452 -96.863491 136 525ft 92kts
15-Dec-19 10:01 32.840086 -96.850426 135 473ft 30kts
15-Dec-19 10:02 32.838450 -96.846733 122 473ft 12kts
15-Dec-19 10:03 32.838013 -96.844924 359 473ft 0kts

Navigation Log

Ident Type
Flight plan parsing failed, navigation log unavailable